createdAt,value
2023-05-06T00:00:34.351Z,6.80
2023-05-06T00:03:17.473Z,7.80
2023-05-06T00:05:49.802Z,6.90
2023-05-06T00:08:21.925Z,7.00
2023-05-06T00:10:54.011Z,6.40
2023-05-06T00:13:26.077Z,8.80
2023-05-06T00:15:58.425Z,8.00
2023-05-06T00:18:30.551Z,6.80
2023-05-06T00:21:02.863Z,6.50
2023-05-06T00:23:35.013Z,6.60
2023-05-06T00:26:07.515Z,9.30
2023-05-06T00:28:39.605Z,8.00
2023-05-06T00:31:11.746Z,7.50
2023-05-06T00:33:44.481Z,7.60
2023-05-06T00:36:16.850Z,9.00
2023-05-06T00:38:48.899Z,12.20
2023-05-06T00:41:20.930Z,10.20
2023-05-06T00:43:52.991Z,8.40
2023-05-06T00:46:25.594Z,8.60
2023-05-06T00:48:57.935Z,8.90
2023-05-06T00:51:30.984Z,6.80
2023-05-06T00:54:04.778Z,8.70
2023-05-06T00:56:36.972Z,8.00
2023-05-06T00:59:09.519Z,8.30
2023-05-06T01:01:42.028Z,7.40
2023-05-06T01:04:15.090Z,8.10
2023-05-06T01:06:57.808Z,7.90
2023-05-06T01:09:35.064Z,5.90
2023-05-06T01:12:13.595Z,7.80
2023-05-06T01:14:54.761Z,8.90
2023-05-06T01:17:29.143Z,10.20
2023-05-06T01:20:06.583Z,19.00
2023-05-06T01:22:40.200Z,21.10
2023-05-06T01:25:21.326Z,42.80
2023-05-06T01:27:53.426Z,35.80
2023-05-06T01:30:28.387Z,14.00
2023-05-06T01:33:06.669Z,12.80
2023-05-06T01:35:49.550Z,11.80
2023-05-06T01:38:30.338Z,12.10
2023-05-06T01:41:04.188Z,10.00
2023-05-06T01:43:44.061Z,11.00
2023-05-06T01:46:22.673Z,12.10
2023-05-06T01:48:59.205Z,12.70
2023-05-06T01:51:33.523Z,10.00
2023-05-06T01:54:05.929Z,9.20
2023-05-06T01:56:37.966Z,11.70
2023-05-06T01:59:10.341Z,9.30
2023-05-06T02:01:42.439Z,8.20
2023-05-06T02:04:14.755Z,9.40
2023-05-06T02:06:46.957Z,8.90
2023-05-06T02:09:21.082Z,7.60
2023-05-06T02:11:59.337Z,9.80
2023-05-06T02:14:31.442Z,8.00
2023-05-06T02:17:08.232Z,9.20
2023-05-06T02:19:40.437Z,8.40
2023-05-06T02:22:13.166Z,9.10
2023-05-06T02:24:45.243Z,8.40
2023-05-06T02:27:18.423Z,8.40
2023-05-06T02:29:50.544Z,10.20
2023-05-06T02:32:22.678Z,8.00
2023-05-06T02:34:54.736Z,10.30
2023-05-06T02:37:27.654Z,10.50
2023-05-06T02:39:59.674Z,15.40
2023-05-06T02:42:31.765Z,17.20
2023-05-06T02:45:04.222Z,14.00
2023-05-06T02:47:37.703Z,10.80
2023-05-06T02:50:11.103Z,9.90
2023-05-06T02:52:43.240Z,10.70
2023-05-06T02:55:15.304Z,10.10
2023-05-06T02:57:47.485Z,9.30
2023-05-06T03:00:20.447Z,9.10
2023-05-06T03:02:52.551Z,8.00
2023-05-06T03:05:24.607Z,8.00
2023-05-06T03:07:56.716Z,10.10
2023-05-06T03:10:29.053Z,9.80
2023-05-06T03:13:01.621Z,8.20
2023-05-06T03:15:34.002Z,11.00
2023-05-06T03:18:06.361Z,8.90
2023-05-06T03:20:38.651Z,7.00
2023-05-06T03:23:10.813Z,11.30
2023-05-06T03:25:43.094Z,11.90
2023-05-06T03:28:15.320Z,8.10
2023-05-06T03:30:47.919Z,10.50
2023-05-06T03:33:21.573Z,9.00
2023-05-06T03:35:53.763Z,7.00
2023-05-06T03:38:26.514Z,8.40
2023-05-06T03:41:03.427Z,10.40
2023-05-06T03:43:36.309Z,8.90
2023-05-06T03:46:09.124Z,8.40
2023-05-06T03:48:41.546Z,7.60
2023-05-06T03:51:16.490Z,9.20
2023-05-06T03:53:48.608Z,7.00
2023-05-06T03:56:21.979Z,8.70
2023-05-06T03:58:55.232Z,7.60
2023-05-06T04:01:28.646Z,7.60
2023-05-06T04:04:00.726Z,8.90
2023-05-06T04:06:33.024Z,8.20
2023-05-06T04:09:06.533Z,8.60
2023-05-06T04:11:39.716Z,8.50
2023-05-06T04:14:11.842Z,7.50
2023-05-06T04:16:43.928Z,8.90
2023-05-06T04:19:17.668Z,10.40
2023-05-06T04:21:50.316Z,8.70
2023-05-06T04:24:23.262Z,9.40
2023-05-06T04:26:55.915Z,9.90
2023-05-06T04:29:28.370Z,8.60
2023-05-06T04:32:06.332Z,7.80
2023-05-06T04:34:43.634Z,9.10
2023-05-06T04:37:16.397Z,8.50
2023-05-06T04:39:54.507Z,11.90
2023-05-06T04:42:26.997Z,9.30
2023-05-06T04:45:12.111Z,8.60
2023-05-06T04:47:45.262Z,8.60
2023-05-06T04:50:17.596Z,8.70
2023-05-06T04:52:49.791Z,9.20
2023-05-06T04:55:23.306Z,7.50
2023-05-06T04:57:57.131Z,7.90
2023-05-06T05:00:29.368Z,7.00
2023-05-06T05:03:01.883Z,7.70
2023-05-06T05:05:35.350Z,7.20
2023-05-06T05:08:08.950Z,8.60
2023-05-06T05:10:44.602Z,9.60
2023-05-06T05:13:18.745Z,7.10
2023-05-06T05:15:51.170Z,7.50
2023-05-06T05:18:23.172Z,8.90
2023-05-06T05:20:56.282Z,8.10
2023-05-06T05:23:28.637Z,7.20
2023-05-06T05:26:00.964Z,7.90
2023-05-06T05:28:33.098Z,7.70
2023-05-06T05:31:09.662Z,6.80
2023-05-06T05:33:42.950Z,7.40
2023-05-06T05:36:18.608Z,7.50
2023-05-06T05:38:52.328Z,8.10
2023-05-06T05:41:27.219Z,8.00
2023-05-06T05:44:00.155Z,10.40
2023-05-06T05:46:32.564Z,9.70
2023-05-06T05:49:05.317Z,9.80
2023-05-06T05:51:37.469Z,10.80
2023-05-06T05:54:10.351Z,11.40
2023-05-06T05:56:43.261Z,10.60
2023-05-06T05:59:16.182Z,10.30
2023-05-06T06:01:48.821Z,10.40
2023-05-06T06:04:21.269Z,11.60
2023-05-06T06:06:53.511Z,11.50
2023-05-06T06:09:25.584Z,8.40
2023-05-06T06:11:58.266Z,8.90
2023-05-06T06:14:30.916Z,9.90
2023-05-06T06:17:04.102Z,9.60
2023-05-06T06:19:36.299Z,10.50
2023-05-06T06:22:08.521Z,8.70
2023-05-06T06:24:41.472Z,9.60
2023-05-06T06:27:13.836Z,8.30
2023-05-06T06:29:48.511Z,10.20
2023-05-06T06:32:20.983Z,11.60
2023-05-06T06:34:53.261Z,9.80
2023-05-06T06:37:25.540Z,21.90
2023-05-06T06:39:57.556Z,9.20
2023-05-06T06:42:29.622Z,10.80
2023-05-06T06:45:13.956Z,10.50
2023-05-06T06:47:46.334Z,10.30
2023-05-06T06:50:18.502Z,10.90
2023-05-06T06:52:51.143Z,10.40
2023-05-06T06:55:23.914Z,15.30
2023-05-06T06:57:55.898Z,12.10
2023-05-06T07:00:28.225Z,10.40
2023-05-06T07:03:00.501Z,9.70
2023-05-06T07:05:32.710Z,9.50
2023-05-06T07:08:05.000Z,9.70
2023-05-06T07:10:37.067Z,9.10
2023-05-06T07:13:09.241Z,9.80
2023-05-06T07:15:41.322Z,11.40
2023-05-06T07:18:13.765Z,11.50
2023-05-06T07:20:45.868Z,10.30
2023-05-06T07:23:17.915Z,8.00
2023-05-06T07:25:50.051Z,9.00
2023-05-06T07:28:22.278Z,9.60
2023-05-06T07:30:54.402Z,9.70
2023-05-06T07:33:26.559Z,9.60
2023-05-06T07:35:58.790Z,9.70
2023-05-06T07:38:31.000Z,11.20
2023-05-06T07:41:03.296Z,8.90
2023-05-06T07:43:35.384Z,9.60
2023-05-06T07:46:07.748Z,9.80
2023-05-06T07:48:39.848Z,10.10
2023-05-06T07:51:12.030Z,11.60
2023-05-06T07:53:44.049Z,10.10
2023-05-06T07:56:16.177Z,15.50
2023-05-06T07:58:49.503Z,9.50
2023-05-06T08:01:21.481Z,10.10
2023-05-06T08:03:53.754Z,10.50
2023-05-06T08:06:26.081Z,9.50
2023-05-06T08:08:58.289Z,10.20
2023-05-06T08:11:30.460Z,9.00
2023-05-06T08:14:02.620Z,10.60
2023-05-06T08:16:34.743Z,9.50
2023-05-06T08:19:06.781Z,11.30
2023-05-06T08:21:38.947Z,13.10
2023-05-06T08:24:14.060Z,13.50
2023-05-06T08:29:17.267Z,11.70
2023-05-06T08:31:49.634Z,9.80
2023-05-06T08:34:22.433Z,9.70
2023-05-06T08:36:54.509Z,11.10
2023-05-06T08:39:27.975Z,15.90
2023-05-06T08:42:03.061Z,14.80
2023-05-06T08:44:35.521Z,14.30
2023-05-06T08:47:08.091Z,11.30
2023-05-06T08:49:40.414Z,8.90
2023-05-06T08:52:16.411Z,9.70
2023-05-06T08:54:53.615Z,11.10
2023-05-06T08:57:26.141Z,14.90
2023-05-06T08:59:58.460Z,13.10
2023-05-06T09:02:31.178Z,13.20
2023-05-06T09:05:03.990Z,13.80
2023-05-06T09:07:36.030Z,12.40
2023-05-06T09:10:13.759Z,17.40
2023-05-06T09:12:45.921Z,14.60
2023-05-06T09:15:18.034Z,10.40
2023-05-06T09:17:50.409Z,10.00
2023-05-06T09:20:22.630Z,9.30
2023-05-06T09:22:54.812Z,12.00
2023-05-06T09:25:27.087Z,12.60
2023-05-06T09:28:08.707Z,16.50
2023-05-06T09:30:42.720Z,13.90
2023-05-06T09:33:15.557Z,12.90
2023-05-06T09:35:48.060Z,21.60
2023-05-06T09:38:21.265Z,19.40
2023-05-06T09:40:53.337Z,13.20
2023-05-06T09:43:25.711Z,14.00
2023-05-06T09:45:58.107Z,12.00
2023-05-06T09:48:33.152Z,12.40
2023-05-06T09:51:07.785Z,12.40
2023-05-06T09:53:40.746Z,11.70
2023-05-06T09:56:15.045Z,12.40
2023-05-06T09:58:49.775Z,11.90
2023-05-06T10:01:35.108Z,13.50
2023-05-06T10:04:12.929Z,13.50
2023-05-06T10:09:16.774Z,12.80
2023-05-06T10:11:52.177Z,13.50
2023-05-06T10:14:24.447Z,10.70
2023-05-06T10:16:57.397Z,13.50
2023-05-06T10:19:29.765Z,12.60
2023-05-06T10:22:09.306Z,14.00
2023-05-06T10:24:53.499Z,15.20
2023-05-06T10:27:26.543Z,14.40
2023-05-06T10:30:01.407Z,15.20
2023-05-06T10:32:34.993Z,18.30
2023-05-06T10:35:11.830Z,18.30
2023-05-06T10:37:44.875Z,18.10
2023-05-06T10:40:17.631Z,17.70
2023-05-06T10:42:49.712Z,22.10
2023-05-06T10:45:21.856Z,48.10
2023-05-06T10:48:16.497Z,23.80
2023-05-06T10:50:48.795Z,26.00
2023-05-06T10:53:58.231Z,28.90
2023-05-06T10:56:31.226Z,15.80
2023-05-06T10:59:08.186Z,17.20
2023-05-06T11:01:42.061Z,30.90
2023-05-06T11:04:16.077Z,18.30
2023-05-06T11:06:49.478Z,28.30
2023-05-06T11:09:23.677Z,25.30
2023-05-06T11:12:01.960Z,32.80
2023-05-06T11:14:35.599Z,20.00
2023-05-06T11:17:10.208Z,17.50
2023-05-06T11:19:42.556Z,18.50
2023-05-06T11:22:43.817Z,14.90
2023-05-06T11:25:16.303Z,15.50
2023-05-06T11:27:50.212Z,13.00
2023-05-06T11:30:23.001Z,14.50
2023-05-06T11:32:57.086Z,14.30
2023-05-06T11:35:38.076Z,14.60
2023-05-06T11:38:10.497Z,15.30
2023-05-06T11:40:44.128Z,17.30
2023-05-06T11:43:17.781Z,15.60
2023-05-06T11:45:51.273Z,19.60
2023-05-06T11:48:23.885Z,18.90
2023-05-06T11:50:57.260Z,17.60
2023-05-06T11:53:31.263Z,18.40
2023-05-06T11:56:03.825Z,21.80
2023-05-06T11:58:36.414Z,18.50
2023-05-06T12:01:08.506Z,17.30
2023-05-06T12:03:40.882Z,19.50
2023-05-06T12:06:13.340Z,17.90
2023-05-06T12:08:47.147Z,19.60
2023-05-06T12:11:19.618Z,18.00
2023-05-06T12:13:52.097Z,19.20
2023-05-06T12:16:25.896Z,20.30
2023-05-06T12:18:58.790Z,19.40
2023-05-06T12:21:31.775Z,18.70
2023-05-06T12:24:04.021Z,21.40
2023-05-06T12:26:47.249Z,23.80
2023-05-06T12:29:20.066Z,26.10
2023-05-06T12:32:07.593Z,53.80
2023-05-06T12:34:43.481Z,30.40
2023-05-06T12:39:59.077Z,21.20
2023-05-06T12:42:31.810Z,21.70
2023-05-06T12:45:16.326Z,19.20
2023-05-06T12:47:58.917Z,20.00
2023-05-06T12:50:40.766Z,21.30
2023-05-06T12:55:46.656Z,19.40
2023-05-06T12:58:22.441Z,19.10
2023-05-06T13:00:54.900Z,21.30
2023-05-06T13:03:27.403Z,21.30
2023-05-06T13:05:59.674Z,19.70
2023-05-06T13:08:32.257Z,18.30
2023-05-06T13:11:04.384Z,18.60
2023-05-06T13:13:36.607Z,15.80
2023-05-06T13:16:11.098Z,19.60
2023-05-06T13:18:43.662Z,19.50
2023-05-06T13:21:16.058Z,18.90
2023-05-06T13:23:48.894Z,18.60
2023-05-06T13:26:21.103Z,18.60
2023-05-06T13:28:53.417Z,19.60
2023-05-06T13:31:26.320Z,17.30
2023-05-06T13:33:59.071Z,16.90
2023-05-06T13:36:31.489Z,18.00
2023-05-06T13:39:04.380Z,17.90
2023-05-06T13:41:36.565Z,18.20
2023-05-06T13:44:09.066Z,19.20
2023-05-06T13:46:42.113Z,20.60
2023-05-06T13:49:16.054Z,20.80
2023-05-06T13:51:48.365Z,20.80
2023-05-06T13:54:20.773Z,20.40
2023-05-06T13:56:53.349Z,21.50
2023-05-06T13:59:26.226Z,79.00
2023-05-06T14:01:58.878Z,54.40
2023-05-06T14:04:31.559Z,64.30
2023-05-06T14:07:03.834Z,70.00
2023-05-06T14:09:37.185Z,54.70
2023-05-06T14:12:09.659Z,68.40
2023-05-06T14:14:41.799Z,157.60
2023-05-06T14:17:14.502Z,114.30
2023-05-06T14:19:46.921Z,89.60
2023-05-06T14:22:19.226Z,37.00
2023-05-06T14:24:51.456Z,60.90
2023-05-06T14:27:23.899Z,29.00
2023-05-06T14:29:56.329Z,20.90
2023-05-06T14:32:31.140Z,16.20
2023-05-06T14:35:03.585Z,17.10
2023-05-06T14:37:38.019Z,43.30
2023-05-06T14:40:12.703Z,25.70
2023-05-06T14:42:45.243Z,22.80
2023-05-06T14:45:17.553Z,30.50
2023-05-06T14:47:49.914Z,25.40
2023-05-06T14:50:22.224Z,26.20
2023-05-06T14:52:54.313Z,21.70
2023-05-06T14:55:26.987Z,25.00
2023-05-06T14:57:59.251Z,19.20
2023-05-06T15:00:31.539Z,30.80
2023-05-06T15:03:03.902Z,22.10
2023-05-06T15:05:37.359Z,22.90
2023-05-06T15:08:10.099Z,17.90
2023-05-06T15:10:42.266Z,26.40
2023-05-06T15:13:14.444Z,42.90
2023-05-06T15:15:47.101Z,37.80
2023-05-06T15:18:19.387Z,31.90
2023-05-06T15:20:52.633Z,21.60
2023-05-06T15:23:24.836Z,26.80
2023-05-06T15:25:57.935Z,25.10
2023-05-06T15:28:30.392Z,17.80
2023-05-06T15:31:02.899Z,23.70
2023-05-06T15:33:35.353Z,19.90
2023-05-06T15:36:08.386Z,18.20
2023-05-06T15:39:00.878Z,17.50
2023-05-06T15:41:35.373Z,22.70
2023-05-06T15:44:09.899Z,18.00
2023-05-06T15:46:43.143Z,19.80
2023-05-06T15:52:00.833Z,19.80
2023-05-06T15:54:41.318Z,15.30
2023-05-06T15:57:14.876Z,18.10
2023-05-06T15:59:47.171Z,15.30
2023-05-06T16:04:56.122Z,17.10
2023-05-06T16:07:30.164Z,15.80
2023-05-06T16:10:02.522Z,19.00
2023-05-06T16:12:36.153Z,18.30
2023-05-06T16:15:09.981Z,17.00
2023-05-06T16:17:42.219Z,17.70
2023-05-06T16:20:17.145Z,18.10
2023-05-06T16:22:54.532Z,20.90
2023-05-06T16:25:27.191Z,17.70
2023-05-06T16:28:00.319Z,23.10
2023-05-06T16:30:32.998Z,40.20
2023-05-06T16:33:06.461Z,61.40
2023-05-06T16:35:38.936Z,66.60
2023-05-06T16:38:11.765Z,106.50
2023-05-06T16:40:51.294Z,78.00
2023-05-06T16:43:24.058Z,53.30
2023-05-06T16:45:56.460Z,54.80
2023-05-06T16:48:28.987Z,81.60
2023-05-06T16:51:02.187Z,47.90
2023-05-06T16:53:34.456Z,29.90
2023-05-06T16:56:07.981Z,28.40
2023-05-06T16:58:40.777Z,25.30
2023-05-06T17:01:13.216Z,26.30
2023-05-06T17:03:46.203Z,35.40
2023-05-06T17:06:18.512Z,29.90
2023-05-06T17:08:50.658Z,29.00
2023-05-06T17:11:22.978Z,31.10
2023-05-06T17:13:55.591Z,60.40
2023-05-06T17:16:28.194Z,66.60
2023-05-06T17:19:01.250Z,57.60
2023-05-06T17:21:34.203Z,89.10
2023-05-06T17:24:07.270Z,77.80
2023-05-06T17:26:41.014Z,41.30
2023-05-06T17:29:14.217Z,30.80
2023-05-06T17:31:46.721Z,40.50
2023-05-06T17:34:19.170Z,25.30
2023-05-06T17:36:51.788Z,27.80
2023-05-06T17:39:24.237Z,23.50
2023-05-06T17:42:02.381Z,29.10
2023-05-06T17:44:38.280Z,41.10
2023-05-06T17:47:10.878Z,29.10
2023-05-06T17:49:44.491Z,23.70
2023-05-06T17:52:17.952Z,32.70
2023-05-06T17:55:05.774Z,22.10
2023-05-06T17:57:44.344Z,40.70
2023-05-06T18:00:18.736Z,24.80
2023-05-06T18:02:51.303Z,25.10
2023-05-06T18:05:25.928Z,23.00
2023-05-06T18:07:58.657Z,24.80
2023-05-06T18:10:31.244Z,29.10
2023-05-06T18:13:04.082Z,17.30
2023-05-06T18:15:36.996Z,18.00
2023-05-06T18:18:09.937Z,14.70
2023-05-06T18:20:43.233Z,16.30
2023-05-06T18:23:15.989Z,14.90
2023-05-06T18:25:50.291Z,15.90
2023-05-06T18:28:23.009Z,17.40
2023-05-06T18:30:55.597Z,18.90
2023-05-06T18:33:28.243Z,22.50
2023-05-06T18:36:03.282Z,21.20
2023-05-06T18:38:36.298Z,22.60
2023-05-06T18:41:09.255Z,18.70
2023-05-06T18:43:42.341Z,18.20
2023-05-06T18:46:15.031Z,30.30
2023-05-06T18:48:49.234Z,31.10
2023-05-06T18:51:22.985Z,30.10
2023-05-06T18:53:56.846Z,22.80
2023-05-06T18:56:30.072Z,19.30
2023-05-06T18:59:03.118Z,17.90
2023-05-06T19:01:36.098Z,24.50
2023-05-06T19:04:12.414Z,39.40
2023-05-06T19:06:49.076Z,44.10
2023-05-06T19:09:24.378Z,34.60
2023-05-06T19:12:00.428Z,38.10
2023-05-06T19:14:34.776Z,39.60
2023-05-06T19:17:08.248Z,38.60
2023-05-06T19:19:41.826Z,40.90
2023-05-06T19:22:20.720Z,31.70
2023-05-06T19:24:55.152Z,33.90
2023-05-06T19:27:27.849Z,34.30
2023-05-06T19:30:04.443Z,37.70
2023-05-06T19:32:54.856Z,38.50
2023-05-06T19:35:29.513Z,29.30
2023-05-06T19:38:05.390Z,28.60
2023-05-06T19:40:40.286Z,31.30
2023-05-06T19:43:13.192Z,30.30
2023-05-06T19:45:48.044Z,32.30
2023-05-06T19:48:23.934Z,27.30
2023-05-06T19:50:58.181Z,30.30
2023-05-06T19:53:34.843Z,26.00
2023-05-06T19:56:20.382Z,27.70
2023-05-06T19:58:54.704Z,23.40
2023-05-06T20:01:27.969Z,26.60
2023-05-06T20:04:02.098Z,19.20
2023-05-06T20:06:36.285Z,22.20
2023-05-06T20:09:10.735Z,27.20
2023-05-06T20:11:44.652Z,24.20
2023-05-06T20:14:19.772Z,25.40
2023-05-06T20:16:57.859Z,20.80
2023-05-06T20:19:35.248Z,20.70
2023-05-06T20:22:12.040Z,16.30
2023-05-06T20:24:47.917Z,17.40
2023-05-06T20:27:22.008Z,16.30
2023-05-06T20:29:59.721Z,16.10
2023-05-06T20:32:34.135Z,20.50
2023-05-06T20:37:41.991Z,18.30
2023-05-06T20:40:19.997Z,15.60
2023-05-06T20:43:02.254Z,18.70
2023-05-06T20:45:37.368Z,15.20
2023-05-06T20:48:17.800Z,12.80
2023-05-06T20:50:54.189Z,12.30
2023-05-06T20:53:32.863Z,15.70
2023-05-06T20:56:07.691Z,18.20
2023-05-06T20:58:40.419Z,15.30
2023-05-06T21:01:13.308Z,16.20
2023-05-06T21:03:46.926Z,13.00
2023-05-06T21:06:20.625Z,18.40
2023-05-06T21:08:53.654Z,18.60
2023-05-06T21:11:28.931Z,20.90
2023-05-06T21:14:02.173Z,21.10
2023-05-06T21:16:34.609Z,18.30
2023-05-06T21:19:07.127Z,20.40
2023-05-06T21:21:39.504Z,22.80
2023-05-06T21:24:12.173Z,21.10
2023-05-06T21:26:45.051Z,21.90
2023-05-06T21:29:17.542Z,17.20
2023-05-06T21:31:50.383Z,18.50
2023-05-06T21:34:22.917Z,15.40
2023-05-06T21:36:55.467Z,15.60
2023-05-06T21:39:28.202Z,15.10
2023-05-06T21:42:01.010Z,15.60
2023-05-06T21:44:33.719Z,18.80
2023-05-06T21:47:06.260Z,16.30
2023-05-06T21:49:38.500Z,16.30
2023-05-06T21:52:11.235Z,15.60
2023-05-06T21:54:43.778Z,17.50
2023-05-06T21:57:16.816Z,15.60
2023-05-06T21:59:48.937Z,16.60
2023-05-06T22:02:21.336Z,15.10
2023-05-06T22:04:53.675Z,16.50
2023-05-06T22:07:26.110Z,20.90
2023-05-06T22:09:58.708Z,18.30
2023-05-06T22:12:30.896Z,18.60
2023-05-06T22:15:03.159Z,19.70
2023-05-06T22:17:36.024Z,18.00
2023-05-06T22:20:11.420Z,15.90
2023-05-06T22:22:43.474Z,17.10
2023-05-06T22:25:15.738Z,15.70
2023-05-06T22:27:48.063Z,21.30
2023-05-06T22:30:20.435Z,17.00
2023-05-06T22:32:52.569Z,19.10
2023-05-06T22:35:24.611Z,14.80
2023-05-06T22:37:56.658Z,19.40
2023-05-06T22:40:29.350Z,16.90
2023-05-06T22:43:01.640Z,15.80
2023-05-06T22:45:33.797Z,15.10
2023-05-06T22:48:06.682Z,18.10
2023-05-06T22:50:39.011Z,23.00
2023-05-06T22:53:15.351Z,24.10
2023-05-06T22:55:47.799Z,21.80
2023-05-06T22:58:19.934Z,24.20
2023-05-06T23:00:52.181Z,25.20
2023-05-06T23:03:24.552Z,22.20
2023-05-06T23:05:56.831Z,21.60
2023-05-06T23:08:28.959Z,22.40
2023-05-06T23:11:01.063Z,19.70
2023-05-06T23:13:36.295Z,19.70
2023-05-06T23:16:10.304Z,22.00
2023-05-06T23:18:42.504Z,22.80
2023-05-06T23:21:14.518Z,21.30
2023-05-06T23:23:46.732Z,22.90
2023-05-06T23:26:19.044Z,23.40
2023-05-06T23:28:51.086Z,26.10
2023-05-06T23:31:23.106Z,20.10
2023-05-06T23:33:55.758Z,23.80
2023-05-06T23:36:27.808Z,18.60
2023-05-06T23:38:59.888Z,18.70
2023-05-06T23:41:31.915Z,18.90
2023-05-06T23:44:04.071Z,22.00
2023-05-06T23:46:36.185Z,18.50
2023-05-06T23:49:08.316Z,18.00
2023-05-06T23:51:40.576Z,18.80
2023-05-06T23:54:12.756Z,14.80
2023-05-06T23:56:44.931Z,16.80
2023-05-06T23:59:17.116Z,16.80
